Tiempo atmosférico en la estación meteorológica de Rojales, Alacant/Alicante (31 m.)



Fecha
DESCASC
Temp. máxima en grados centígrados (hora)
DESCASC
Temp. mínima en grados centígrados (hora)
DESCASC
Temp. media en grados centígrados
DESCASC
Racha de viento máxima en m/sg (hora)
DESCASC
Velocidad máxima media en intervalos de 10 minutos(hora)
DESCASC
Precipitaciones diarias en mm
DESCASC
Precipitaciones de 00:00 a 06:00 en mm
DESCASC
Precipitaciones de 06:00 a 12:00 en mm
DESCASC
Precipitaciones de 12:00 a 18:00 en mm
DESCASC
Precipitaciones de 18:00 a 24:00 en mm
DESCASC
18-08-2019 32.8 (17:30) 22.5 (07:40) 27.6 6.94 (15:10) 4.72 (15:10) 0 0 0 0 0
17-08-2019 32 (16:50) 21.6 (07:30) 26.8 6.67 (17:40) 3.89 (14:20) 0 0 0 0 0
16-08-2019 30.4 (14:40) 20.8 (06:40) 25.6 7.5 (16:30) 4.44 (16:10) 0 0 0 0 0
15-08-2019 31.1 (14:50) 22 (00:00) 26.6 7.78 (16:00) 4.17 (16:20) 0 0 0 0 0
14-08-2019 30.1 (14:40) 21.5 (00:00) 25.8 9.44 (16:50) 5.56 (16:50) 0 0 0 0 0
13-08-2019 28.4 (15:20) 23.6 (00:00) 26 11.94 (10:40) 7.22 (13:40) 4.4 0 4.4 0 0
12-08-2019 33.8 (12:30) 23.4 (00:00) 28.6 13.33 (17:10) 7.5 (17:10) 0 0 0 0 0
11-08-2019 31.9 (13:10) 25 (00:00) 28.4 7.78 (14:20) 4.17 (14:10) 0 0 0 0 0
10-08-2019 36.7 (12:00) 24.4 (00:00) 30.6 10.56 (13:50) 6.67 (13:30) 0 0 0 0 0
09-08-2019 38.4 (13:30) 22 (00:00) 30.2 10 (16:50) 6.67 (16:50) 0 0 0 0 0
08-08-2019 34.6 (14:00) 23 (00:00) 28.8 8.89 (16:30) 5.28 (16:30) 0 0 0 0 0
07-08-2019 38.7 (14:30) 23.8 (00:00) 31.3 7.5 (15:10) 4.72 (15:30) 0 0 0 0 0
06-08-2019 34.3 (16:30) 23.7 (00:00) 29 7.78 (15:10) 5 (15:20) 0 0 0 0 0
05-08-2019 31.6 (13:10) 23 (00:00) 27.3 7.78 (14:50) 4.17 (14:50) 0 0 0 0 0
04-08-2019 31.9 (15:30) 22.1 (00:00) 27 6.67 (17:20) 3.89 (17:20) 0 0 0 0 0
03-08-2019 30 (14:50) 22.3 (00:00) 26.1 7.5 (13:00) 4.17 (13:10) 0 0 0 0 0
02-08-2019 30.2 (18:00) 22.4 (00:00) 26.3 8.89 (13:20) 5 (14:00) 0 0 0 0 0
01-08-2019 30.5 (16:20) 21.6 (00:00) 26.1 8.06 (13:30) 5 (14:40) 0 0 0 0 0
31-07-2019 28.8 (15:10) 23.4 (00:00) 26.1 14.17 (18:50) 10 (18:50) 0 0 0 0 0
30-07-2019 29.8 (13:40) 21.7 (00:00) 25.8 8.89 (14:30) 5.28 (15:00) 0 0 0 0 0
29-07-2019 30.7 (12:50) 21.5 (00:00) 26.1 9.72 (14:00) 5.56 (14:40) 0 0 0 0 0
28-07-2019 31.5 (12:50) 23.7 (00:00) 27.6 10.56 (16:10) 6.67 (00:30) 0 0 0 0 0
27-07-2019 36.1 (18:00) 23.4 (00:00) 29.7 14.72 (17:30) 8.61 (20:10) 0 0 0 0 0
26-07-2019 34.6 (18:10) 22.3 (00:00) 28.4 9.17 (21:10) 6.11 (21:10) 0 0 0 0 0
25-07-2019 33.1 (15:40) 21 (00:00) 27 7.5 (13:40) 5 (12:20) 0 0 0 0 0
24-07-2019 33.2 (13:30) 21.2 (00:00) 27.2 9.44 (14:30) 5.56 (14:30) 0 0 0 0 0
23-07-2019 33 (14:50) 20.8 (00:00) 26.9 9.17 (16:00) 6.11 (13:30) 0 0 0 0 0
22-07-2019 31.4 (15:10) 21.9 (00:00) 26.6 12.78 (16:30) 8.61 (16:50) 0 0 0 0 0
21-07-2019 32.1 (14:00) 22.1 (00:00) 27.1 13.89 (15:40) 8.61 (12:30) 0 0 0 0 0

Gráficas

Temp. máximas Temp. mínimas Temp. medias Precipitaciones Rachas de viento máximas Velocidades máximas media en intervalos de 10 minutos

Datos horarios

Fecha y hora oficial Temperatura (ºC) Velocidad del viento (km/h) Dirección del viento Racha (km/h) Dirección de racha Precipitación (mm) Presión (hPa) Tendencia (hPa) Humedad (%)
2019-08-19 23:00:00 27 9 Sudeste 20 Este 0 -- -- 82
2019-08-19 22:00:00 27.1 12 Este 21 Este 0 -- -- 82
2019-08-19 21:00:00 27.1 7 Nordeste 23 Nordeste 0 -- -- 82
2019-08-19 20:00:00 27.9 13 Nordeste 26 Este 0 -- -- 78
2019-08-19 19:00:00 28.5 14 Este 27 Este 0 -- -- 75
2019-08-19 18:00:00 29.2 16 Este 30 Este 0 -- -- 72
2019-08-19 17:00:00 30.1 15 Este 31 Este 0 -- -- 69
2019-08-19 16:00:00 30.5 17 Este 31 Este 0 -- -- 66
2019-08-19 15:00:00 30.6 18 Este 32 Este 0 -- -- 63
2019-08-19 14:00:00 30.4 18 Este 32 Este 0 -- -- 62
2019-08-19 13:00:00 30.2 17 Este 30 Este 0 -- -- 68
2019-08-19 12:00:00 30.1 16 Nordeste 29 Norte 0 -- -- 64
2019-08-19 11:00:00 29.1 7 Nordeste 12 Nordeste 0 -- -- 63
2019-08-19 10:00:00 26.7 3 Norte 10 Nordeste 0 -- -- 67
2019-08-19 09:00:00 24.3 4 Sudoeste 9 Oeste 0 -- -- 78
2019-08-19 08:00:00 22.7 3 Noroeste 7 Oeste 0 -- -- 94
2019-08-19 07:00:00 23.2 5 Sudoeste 13 Oeste 0 -- -- 96
2019-08-19 06:00:00 24.3 8 Oeste 13 Oeste 0 -- -- 96
2019-08-19 05:00:00 24.4 6 Oeste 10 Oeste 0 -- -- 95
2019-08-19 04:00:00 24.3 4 Oeste 6 Oeste 0 -- -- 95
2019-08-19 03:00:00 24.1 2 Nordeste 7 Sudoeste 0 -- -- 93
2019-08-19 02:00:00 24.9 2 Sudeste 8 Sudeste 0 -- -- 93
2019-08-19 01:00:00 24.8 0 Calma 4 Noroeste 0 -- -- 92
2019-08-19 00:00:00 25.3 2 Este 5 Sudeste 0 -- -- 91
2019-08-18 23:00:00 26.1 2 Nordeste 13 Este 0 -- -- 87
2019-08-18 22:00:00 26.7 8 Este 15 Sudeste 0 -- -- 88
2019-08-18 21:00:00 27.7 7 Sudeste 13 Sudeste 0 -- -- 82
2019-08-18 20:00:00 29.5 7 Este 22 Sudeste 0 -- -- 70
2019-08-18 19:00:00 31.2 11 Sudeste 20 Este 0 -- -- 58
2019-08-18 18:00:00 32.3 10 Este 19 Este 0 -- -- 51
2019-08-18 17:00:00 32.4 10 Sudeste 21 Sudeste 0 -- -- 55
2019-08-18 16:00:00 31.8 13 Sudeste 25 Sudeste 0 -- -- 61
2019-08-18 15:00:00 31.6 15 Sudeste 24 Este 0 -- -- 64
2019-08-18 14:00:00 32 10 Este 21 Este 0 -- -- 59
2019-08-18 13:00:00 31.3 12 Este 21 Este 0 -- -- 61
2019-08-18 12:00:00 30.4 8 Nordeste 15 Nordeste 0 -- -- 63
2019-08-18 11:00:00 28.4 7 Nordeste 13 Norte 0 -- -- 74
2019-08-18 10:00:00 24.8 4 Noroeste 7 Noroeste 0 -- -- 92
2019-08-18 09:00:00 22.8 4 Noroeste 8 Oeste 0 -- -- 96
2019-08-18 08:00:00 22.5 7 Oeste 10 Sudoeste 0 -- -- 96
2019-08-18 07:00:00 22.8 2 Oeste 8 Oeste 0 -- -- 96
2019-08-18 06:00:00 23 3 Oeste 6 Norte 0 -- -- 95
2019-08-18 05:00:00 23.1 4 Noroeste 6 Noroeste 0 -- -- 95
2019-08-18 04:00:00 23.4 4 Sudoeste 5 Sudoeste 0 -- -- 94
2019-08-18 03:00:00 24 0 Calma 4 Nordeste 0 -- -- 94
2019-08-18 02:00:00 24.1 0 Calma 4 Noroeste 0 -- -- 92
2019-08-18 01:00:00 24.6 0 Calma 4 Noroeste 0 -- -- 90
2019-08-18 00:00:00 25.3 0 Calma 8 Este 0 -- -- 90
2019-08-17 23:00:00 25.9 6 Este 11 Sudeste 0 -- -- 88
2019-08-17 22:00:00 26.4 7 Este 11 Sudeste 0 -- -- 86
2019-08-17 21:00:00 27.4 6 Este 14 Este 0 -- -- 78
2019-08-17 20:00:00 29.4 7 Este 15 Este 0 -- -- 61
2019-08-17 19:00:00 30.2 9 Este 22 Sudeste 0 -- -- 58
2019-08-17 18:00:00 31 12 Este 24 Sudeste 0 -- -- 56
2019-08-17 17:00:00 31.8 12 Sudeste 23 Este 0 -- -- 52
2019-08-17 16:00:00 31.9 12 Sudeste 23 Sudeste 0 -- -- 46
2019-08-17 15:00:00 31.5 13 Este 24 Este 0 -- -- 54
2019-08-17 14:00:00 31.4 14 Este 22 Este 0 -- -- 53
2019-08-17 13:00:00 31.4 9 Sudeste 19 Sudeste 0 -- -- 53
2019-08-17 12:00:00 30.6 10 Sudeste 18 Sudeste 0 -- -- 55
2019-08-17 11:00:00 28.9 4 Este 9 Nordeste 0 -- -- 62
2019-08-17 10:00:00 25.8 4 Noroeste 10 Oeste 0 -- -- 79
2019-08-17 09:00:00 23.6 5 Oeste 10 Oeste 0 -- -- 90
2019-08-17 08:00:00 21.8 2 Oeste 5 Oeste 0 -- -- 94
2019-08-17 07:00:00 21.8 0 Calma 7 Sudoeste 0 -- -- 93
2019-08-17 06:00:00 22.3 4 Sudoeste 6 Sudoeste 0 -- -- 93
2019-08-17 05:00:00 22.7 3 Oeste 6 Oeste 0 -- -- 93
2019-08-17 04:00:00 23.1 3 Oeste 5 Oeste 0 -- -- 92
2019-08-17 03:00:00 23.3 0 Calma 0 Calma 0 -- -- 93
2019-08-17 02:00:00 23.5 0 Calma 2 Oeste 0 -- -- 92
2019-08-17 01:00:00 23.7 0 Calma 2 Norte 0 -- -- 90
2019-08-17 00:00:00 24.2 0 Calma 2 Nordeste 0 -- -- 89
2019-08-16 23:00:00 25 0 Calma 5 Nordeste 0 -- -- 85
2019-08-16 22:00:00 25.7 4 Este 12 Este 0 -- -- 83
2019-08-16 21:00:00 26.3 7 Este 16 Sudeste 0 -- -- 79
2019-08-16 20:00:00 27.5 9 Este 20 Este 0 -- -- 74
2019-08-16 19:00:00 28.5 11 Este 23 Este 0 -- -- 71
2019-08-16 18:00:00 29 14 Este 26 Este 0 -- -- 67
2019-08-16 17:00:00 29.5 14 Este 27 Este 0 -- -- 65
2019-08-16 16:00:00 30.1 14 Este 26 Este 0 -- -- 62
2019-08-16 15:00:00 30.3 13 Este 26 Este 0 -- -- 60
2019-08-16 14:00:00 30.2 13 Este 24 Este 0 -- -- 60
2019-08-16 13:00:00 30.1 10 Este 23 Este 0 -- -- 57
2019-08-16 12:00:00 29.3 12 Nordeste 21 Este 0 -- -- 63
2019-08-16 11:00:00 28.4 10 Nordeste 17 Nordeste 0 -- -- 65
2019-08-16 10:00:00 25.6 3 Noroeste 6 Oeste 0 -- -- 62
2019-08-16 09:00:00 23.4 4 Noroeste 8 Oeste 0 -- -- 66
2019-08-16 08:00:00 21.5 3 Oeste 6 Sudoeste 0 -- -- 78
2019-08-16 07:00:00 20.8 3 Oeste 5 Noroeste 0 -- -- 81
2019-08-16 06:00:00 20.9 3 Oeste 4 Oeste 0 -- -- 84
2019-08-16 05:00:00 21.3 3 Oeste 5 Oeste 0 -- -- 85
2019-08-16 04:00:00 22.1 2 Oeste 6 Oeste 0 -- -- 88
2019-08-16 03:00:00 23.1 4 Nordeste 8 Este 0 -- -- 87
2019-08-16 02:00:00 22.9 0 Calma 2 Oeste 0 -- -- 87
2019-08-16 01:00:00 23.5 0 Calma 4 Este 0 -- -- 84
2019-08-16 00:00:00 24.1 2 Este 4 Este 0 -- -- 82
2019-08-15 23:00:00 24.6 0 Calma 6 Sudeste 0 -- -- 79
2019-08-15 22:00:00 25.8 4 Este 11 Este 0 -- -- 75
2019-08-15 21:00:00 26.6 8 Este 16 Este 0 -- -- 72
2019-08-15 20:00:00 27.9 9 Sudeste 21 Este 0 -- -- 64
2019-08-15 19:00:00 28.7 10 Este 24 Este 0 -- -- 63
2019-08-15 18:00:00 29.3 14 Este 26 Este 0 -- -- 64
2019-08-15 17:00:00 29.9 12 Sudeste 27 Este 0 -- -- 59
2019-08-15 16:00:00 30 14 Sudeste 28 Este 0 -- -- 58
2019-08-15 15:00:00 30.9 13 Este 24 Este 0 -- -- 53
2019-08-15 14:00:00 30.3 11 Este 21 Este 0 -- -- 54
2019-08-15 13:00:00 30.2 10 Sudeste 18 Sudeste 0 -- -- 58
2019-08-15 12:00:00 30.1 9 Este 15 Este 0 -- -- 60
2019-08-15 11:00:00 28.5 4 Este 9 Este 0 -- -- 63
2019-08-15 10:00:00 25.8 4 Oeste 8 Oeste 0 -- -- 81
2019-08-15 09:00:00 23.6 3 Norte 6 Noroeste 0 -- -- 87
2019-08-15 08:00:00 22.3 0 Calma 3 Noroeste 0 -- -- 94
2019-08-15 07:00:00 22.1 0 Calma 4 Noroeste 0 -- -- 93
2019-08-15 06:00:00 22.3 0 Calma 4 Noroeste 0 -- -- 93
2019-08-15 05:00:00 22.6 2 Oeste 5 Sudoeste 0 -- -- 91
2019-08-15 04:00:00 23.3 0 Calma 4 Este 0 -- -- 90
2019-08-15 03:00:00 23.8 0 Calma 3 Sudeste 0 -- -- 89
2019-08-15 02:00:00 23.8 0 Calma 4 Noroeste 0 -- -- 89
2019-08-15 01:00:00 24.1 0 Calma 5 Sur 0 -- -- 86
2019-08-15 00:00:00 24.6 3 Sur 6 Sur 0 -- -- 86
2019-08-14 23:00:00 25 2 Este 10 Este 0 -- -- 82
2019-08-14 22:00:00 25.6 4 Este 14 Sudeste 0 -- -- 79
2019-08-14 21:00:00 26.4 5 Sudeste 19 Sudeste 0 -- -- 75
2019-08-14 20:00:00 27.6 10 Sudeste 26 Sudeste 0 -- -- 67
2019-08-14 19:00:00 28.4 17 Sur 30 Sudeste 0 -- -- 64
2019-08-14 18:00:00 29.1 15 Sudeste 32 Sudeste 0 -- -- 62
2019-08-14 17:00:00 29.4 17 Sudeste 34 Sudeste 0 -- -- 61
2019-08-14 16:00:00 29.7 17 Sudeste 30 Este 0 -- -- 59
2019-08-14 15:00:00 29.8 14 Sudeste 27 Este 0 -- -- 61
2019-08-14 14:00:00 29.6 12 Sudeste 22 Sudeste 0 -- -- 60
2019-08-14 13:00:00 29.4 12 Sudeste 22 Sudeste 0 -- -- 60
2019-08-14 12:00:00 28.7 8 Sudeste 18 Sudeste 0 -- -- 60
2019-08-14 11:00:00 27.7 4 Este 10 Sudeste 0 -- -- 65
2019-08-14 10:00:00 25.6 3 Noroeste 9 Noroeste 0 -- -- 72
2019-08-14 09:00:00 23.7 5 Oeste 8 Oeste 0 -- -- 78
2019-08-14 08:00:00 22 4 Oeste 7 Sudoeste 0 -- -- 84
2019-08-14 07:00:00 21.6 4 Oeste 7 Sudoeste 0 -- -- 84
2019-08-14 06:00:00 22 0 Calma 4 Norte 0 -- -- 84
2019-08-14 05:00:00 22.5 2 Oeste 5 Noroeste 0 -- -- 83
2019-08-14 04:00:00 22.6 2 Sudoeste 4 Sudoeste 0 -- -- 82
2019-08-14 03:00:00 22.5 0 Calma 2 Sudoeste 0 -- -- 82
2019-08-14 02:00:00 23 0 Calma 5 Noroeste 0 -- -- 81
2019-08-14 01:00:00 22.9 2 Oeste 3 Oeste 0 -- -- 81
2019-08-14 00:00:00 23.7 0 Calma 5 Este 0 -- -- 79
2019-08-13 23:00:00 24.5 0 Calma 9 Nordeste 0 -- -- 76
2019-08-13 22:00:00 25 6 Este 17 Este 0 -- -- 74
2019-08-13 21:00:00 25.5 8 Este 19 Este 0 -- -- 71
2019-08-13 20:00:00 26.3 13 Este 26 Nordeste 0 -- -- 68
2019-08-13 19:00:00 27.2 14 Este 31 Este 0 -- -- 64
2019-08-13 18:00:00 28.1 15 Este 33 Este 0 -- -- 61
2019-08-13 17:00:00 28 18 Este 36 Este 0 -- -- 64
2019-08-13 16:00:00 28.1 21 Este 33 Este 0 -- -- 62
2019-08-13 15:00:00 28.3 19 Este 39 Este 0 -- -- 60
2019-08-13 14:00:00 27.8 25 Este 40 Nordeste 0 -- -- 62
2019-08-13 13:00:00 27 25 Este 40 Nordeste 0 -- -- 65
2019-08-13 12:00:00 26 23 Nordeste 37 Nordeste 0.2 -- -- 73
2019-08-13 11:00:00 23.8 16 Este 43 Este 4.2 -- -- 90
2019-08-13 10:00:00 25.9 21 Este 36 Nordeste 0 -- -- 76
2019-08-13 09:00:00 25.3 17 Nordeste 36 Nordeste 0 -- -- 73
2019-08-13 08:00:00 25.5 18 Nordeste 39 Nordeste 0 -- -- 69
2019-08-13 07:00:00 25.1 25 Nordeste 42 Nordeste 0 -- -- 74
2019-08-13 06:00:00 23.8 8 Nordeste 17 Este 0 -- -- 72
2019-08-13 05:00:00 23.6 0 Calma 6 Noroeste 0 -- -- 78
2019-08-13 04:00:00 24.6 5 Nordeste 13 Nordeste 0 -- -- 72
2019-08-13 03:00:00 25.6 8 Nordeste 21 Nordeste 0 -- -- 65
2019-08-13 02:00:00 25.8 14 Nordeste 31 Nordeste 0 -- -- 72
2019-08-13 01:00:00 25.7 20 Nordeste 39 Este 0 -- -- 78
2019-08-13 00:00:00 25.9 21 Este 40 Este 0 -- -- 76
2019-08-12 23:00:00 25.9 19 Este 37 Nordeste 0 -- -- 81
2019-08-12 22:00:00 26 20 Este 33 Este 0 -- -- 81
2019-08-12 21:00:00 26.4 21 Este 41 Nordeste 0 -- -- 78
2019-08-12 20:00:00 27.3 24 Nordeste 44 Este 0 -- -- 75
2019-08-12 19:00:00 27.5 23 Este 42 Este 0 -- -- 73
2019-08-12 18:00:00 27.6 23 Este 48 Este 0 -- -- 72
2019-08-12 17:00:00 28.5 27 Este 44 Este 0 -- -- 64
2019-08-12 16:00:00 29.4 26 Este 41 Nordeste 0 -- -- 61
2019-08-12 15:00:00 30.3 23 Este 42 Este 0 -- -- 58
2019-08-12 14:00:00 30.9 23 Este 41 Este 0 -- -- 58
2019-08-12 13:00:00 33.1 14 Sudeste 26 Sudeste 0 -- -- 39
2019-08-12 12:00:00 33 5 Noroeste 14 Oeste 0 -- -- 22
2019-08-12 11:00:00 30.8 7 Oeste 15 Oeste 0 -- -- 25
2019-08-12 10:00:00 29.4 9 Oeste 14 Oeste 0 -- -- 28
2019-08-12 09:00:00 26.5 5 Oeste 10 Sudoeste 0 -- -- 32
2019-08-12 08:00:00 24.6 5 Oeste 12 Oeste 0 -- -- 41
2019-08-12 07:00:00 23.4 6 Noroeste 11 Oeste 0 -- -- 46
2019-08-12 06:00:00 25 8 Oeste 23 Oeste 0 -- -- 55
2019-08-12 05:00:00 25.6 11 Oeste 24 Oeste 0 -- -- 73
2019-08-12 04:00:00 25.4 7 Oeste 13 Sudoeste 0 -- -- 85
2019-08-12 03:00:00 25.5 7 Oeste 14 Oeste 0 -- -- 88
2019-08-12 02:00:00 25.5 6 Oeste 10 Oeste 0 -- -- 88
2019-08-12 01:00:00 25.6 3 Norte 6 Norte 0 -- -- 85
2019-08-12 00:00:00 26.2 2 Oeste 14 Este 0 -- -- 83
2019-08-11 23:00:00 26.6 7 Sudeste 14 Este 0 -- -- 83
2019-08-11 22:00:00 26.9 6 Sudeste 17 Este 0 -- -- 81
2019-08-11 21:00:00 27.5 8 Este 16 Sudeste 0 -- -- 80
2019-08-11 20:00:00 28.9 8 Sudeste 15 Este 0 -- -- 74
2019-08-11 19:00:00 29.9 9 Este 17 Sudeste 0 -- -- 69
2019-08-11 18:00:00 30.6 9 Sudeste 24 Este 0 -- -- 67
2019-08-11 17:00:00 30.9 13 Este 25 Este 0 -- -- 67
2019-08-11 16:00:00 30.8 13 Sudeste 26 Este 0 -- -- 69
2019-08-11 15:00:00 30.4 13 Sudeste 28 Este 0 -- -- 68
2019-08-11 14:00:00 31.6 13 Sudeste 26 Sudeste 0 -- -- 64
2019-08-11 13:00:00 31.7 9 Este 21 Sudeste 0 -- -- 64
2019-08-11 12:00:00 30.8 8 Sudeste 17 Sudeste 0 -- -- 67
2019-08-11 11:00:00 29.6 6 Este 14 Nordeste 0 -- -- 71
2019-08-11 10:00:00 27.4 3 Nordeste 8 Noroeste 0 -- -- 85
2019-08-11 09:00:00 25.7 0 Calma 5 Norte 0 -- -- 86
2019-08-11 08:00:00 25.4 4 Oeste 9 Oeste 0 -- -- 91
2019-08-11 07:00:00 25.4 3 Oeste 9 Nordeste 0 -- -- 92
2019-08-11 06:00:00 25.7 3 Nordeste 14 Sudeste 0 -- -- 92
2019-08-11 05:00:00 25.2 3 Este 6 Este 0 -- -- 93
2019-08-11 04:00:00 25.3 0 Calma 5 Nordeste 0 -- -- 92
2019-08-11 03:00:00 25.5 0 Calma 4 Sudeste 0 -- -- 90
2019-08-11 02:00:00 26.2 2 Sudeste 4 Sudeste 0 -- -- 91
2019-08-11 01:00:00 26.6 0 Calma 9 Sudeste 0 -- -- 88
2019-08-11 00:00:00 27 5 Sudeste 10 Sudeste 0 -- -- 88
2019-08-10 23:00:00 27.1 3 Sudeste 8 Este 0 -- -- 85
2019-08-10 22:00:00 27.4 4 Este 10 Este 0 -- -- 85
2019-08-10 21:00:00 28.1 7 Nordeste 15 Este 0 -- -- 82
2019-08-10 20:00:00 30.2 6 Este 16 Este 0 -- -- 66
2019-08-10 19:00:00 31.1 9 Este 20 Sudeste 0 -- -- 62
2019-08-10 18:00:00 31.7 13 Este 26 Este 0 -- -- 58
2019-08-10 17:00:00 32.8 14 Este 30 Este 0 -- -- 52
2019-08-10 16:00:00 33.3 16 Sudeste 34 Sudeste 0 -- -- 50
2019-08-10 15:00:00 33.1 22 Sudeste 35 Este 0 -- -- 48
2019-08-10 14:00:00 33.5 21 Este 38 Este 0 -- -- 48
2019-08-10 13:00:00 34.1 22 Este 38 Este 0 -- -- 44
2019-08-10 12:00:00 36.7 6 Noroeste 18 Oeste 0 -- -- 33
2019-08-10 11:00:00 34.3 10 Oeste 17 Oeste 0 -- -- 38
2019-08-10 10:00:00 31.7 9 Oeste 15 Oeste 0 -- -- 42
2019-08-10 09:00:00 28.9 8 Oeste 16 Sudoeste 0 -- -- 46
2019-08-10 08:00:00 25.8 9 Oeste 13 Oeste 0 -- -- 52
2019-08-10 07:00:00 24.4 4 Oeste 8 Oeste 0 -- -- 66
2019-08-10 06:00:00 24.6 3 Noroeste 10 Oeste 0 -- -- 74
2019-08-10 05:00:00 26.2 8 Oeste 17 Oeste 0 -- -- 69
2019-08-10 04:00:00 24.9 4 Oeste 7 Oeste 0 -- -- 86
2019-08-10 03:00:00 25.1 4 Oeste 10 Sudoeste 0 -- -- 86
2019-08-10 02:00:00 25.4 6 Oeste 12 Oeste 0 -- -- 84
2019-08-10 01:00:00 25.4 5 Sudoeste 8 Sudoeste 0 -- -- 83
2019-08-10 00:00:00 25.9 0 Calma 5 Sudoeste 0 -- -- 81
2019-08-09 23:00:00 27.2 0 Calma 9 Sudeste 0 -- -- 73
2019-08-09 22:00:00 28.9 6 Este 12 Sudeste 0 -- -- 63
2019-08-09 21:00:00 31 6 Este 16 Sudeste 0 -- -- 57
2019-08-09 20:00:00 33.6 9 Sudeste 24 Sudeste 0 -- -- 47
2019-08-09 19:00:00 34.6 14 Sudeste 31 Sudeste 0 -- -- 43
2019-08-09 18:00:00 35.6 20 Sur 35 Sudeste 0 -- -- 32
2019-08-09 17:00:00 36.9 19 Sur 36 Sur 0 -- -- 28
2019-08-09 16:00:00 37.6 18 Sur 32 Sur 0 -- -- 32
2019-08-09 15:00:00 38.2 17 Sudeste 29 Sudeste 0 -- -- 29
2019-08-09 14:00:00 37.4 13 Sudeste 23 Sudeste 0 -- -- 31
2019-08-09 13:00:00 37.2 10 Sudeste 20 Sudeste 0 -- -- 28
2019-08-09 12:00:00 36 4 Sudoeste 12 Oeste 0 -- -- 25
2019-08-09 11:00:00 32.5 6 Oeste 12 Oeste 0 -- -- 33
2019-08-09 10:00:00 28.4 5 Noroeste 11 Oeste 0 -- -- 45
2019-08-09 09:00:00 24.1 4 Oeste 6 Oeste 0 -- -- 61
2019-08-09 08:00:00 22.3 0 Calma 6 Oeste 0 -- -- 71
2019-08-09 07:00:00 23.3 4 Noroeste 11 Oeste 0 -- -- 71
2019-08-09 06:00:00 23.9 6 Oeste 10 Sudoeste 0 -- -- 70
2019-08-09 05:00:00 23.5 5 Sudoeste 10 Oeste 0 -- -- 80
2019-08-09 04:00:00 23.7 5 Oeste 7 Oeste 0 -- -- 84
2019-08-09 03:00:00 24.1 4 Oeste 7 Sudeste 0 -- -- 83
2019-08-09 02:00:00 24.8 0 Calma 8 Sudeste 0 -- -- 83
2019-08-09 01:00:00 24.9 3 Este 5 Sudoeste 0 -- -- 74
2019-08-09 00:00:00 26.6 0 Calma 5 Este 0 -- -- 68
2019-08-08 23:00:00 27.1 4 Este 7 Este 0 -- -- 64
2019-08-08 22:00:00 28.6 4 Sudeste 6 Este 0 -- -- 56
2019-08-08 21:00:00 30.3 0 Calma 23 Sur 0 -- -- 50
2019-08-08 20:00:00 30.8 10 Sur 27 Sur 0 -- -- 51
2019-08-08 19:00:00 31.6 15 Sur 32 Sur 0 -- -- 54
2019-08-08 18:00:00 33.4 17 Sur 31 Sur 0 -- -- 46
2019-08-08 17:00:00 34 17 Sur 32 Sudeste 0 -- -- 43
2019-08-08 16:00:00 34.3 18 Sudeste 28 Sudeste 0 -- -- 44
2019-08-08 15:00:00 34.6 13 Sudeste 23 Sudeste 0 -- -- 43
2019-08-08 14:00:00 34.6 11 Sudeste 23 Sudeste 0 -- -- 44
2019-08-08 13:00:00 34 10 Sudeste 21 Sudeste 0 -- -- 46
2019-08-08 12:00:00 33.6 5 Norte 10 Norte 0 -- -- 34
2019-08-08 11:00:00 31.2 5 Noroeste 10 Noroeste 0 -- -- 38
2019-08-08 10:00:00 28.8 4 Norte 6 Norte 0 -- -- 43
2019-08-08 09:00:00 25.3 0 Calma 9 Sudeste 0 -- -- 54
2019-08-08 08:00:00 23.7 3 Este 10 Nordeste 0 -- -- 59
2019-08-08 07:00:00 23.6 3 Norte 11 Oeste 0 -- -- 62
2019-08-08 06:00:00 23.4 5 Oeste 13 Sudoeste 0 -- -- 66
2019-08-08 05:00:00 23.6 6 Sudoeste 12 Sudoeste 0 -- -- 71
2019-08-08 04:00:00 25 5 Oeste 10 Oeste 0 -- -- 67
2019-08-08 03:00:00 25.2 5 Oeste 11 Oeste 0 -- -- 74
2019-08-08 02:00:00 25.6 0 Calma 7 Sudeste 0 -- -- 81
2019-08-08 01:00:00 26.9 8 Sudeste 12 Sudeste 0 -- -- 85
2019-08-08 00:00:00 27.4 8 Sudeste 10 Sudeste 0 -- -- 70
2019-08-07 23:00:00 27.5 3 Este 8 Este 0 -- -- 73
2019-08-07 22:00:00 28.2 4 Sudeste 12 Este 0 -- -- 63
2019-08-07 21:00:00 29.4 5 Este 13 Este 0 -- -- 61
2019-08-07 20:00:00 30.4 9 Nordeste 16 Nordeste 0 -- -- 56
2019-08-07 19:00:00 30.4 8 Nordeste 17 Nordeste 0 -- -- 57
2019-08-07 18:00:00 30.8 14 Nordeste 24 Este 0 -- -- 67
2019-08-07 17:00:00 35.2 12 Este 25 Este 0 -- -- 30
2019-08-07 16:00:00 36.8 13 Este 27 Sudeste 0 -- -- 26
2019-08-07 15:00:00 38 14 Sudeste 24 Sudeste 0 -- -- 27
2019-08-07 14:00:00 37.8 7 Sudeste 18 Sur 0 -- -- 29
2019-08-07 13:00:00 36.9 9 Sudeste 17 Sudeste 0 -- -- 35
2019-08-07 12:00:00 34.8 3 Noroeste 15 Sudeste 0 -- -- 35
2019-08-07 11:00:00 33.2 6 Sudeste 15 Oeste 0 -- -- 45
2019-08-07 10:00:00 29.1 9 Oeste 16 Oeste 0 -- -- 59
2019-08-07 09:00:00 25.5 8 Oeste 17 Oeste 0 -- -- 79
2019-08-07 08:00:00 24 8 Oeste 13 Oeste 0 -- -- 88
2019-08-07 07:00:00 24 5 Sudoeste 13 Sudoeste 0 -- -- 90
2019-08-07 06:00:00 24.3 7 Oeste 11 Oeste 0 -- -- 87
2019-08-07 05:00:00 24.8 4 Sudoeste 13 Sur 0 -- -- 80
2019-08-07 04:00:00 24.5 0 Calma 12 Sudeste 0 -- -- 83
2019-08-07 03:00:00 24.6 4 Oeste 6 Sudoeste 0 -- -- 85
2019-08-07 02:00:00 25.2 0 Calma 8 Sudeste 0 -- -- 81
2019-08-07 01:00:00 25.4 3 Norte 6 Nordeste 0 -- -- 85
2019-08-07 00:00:00 26.2 4 Este 10 Este 0 -- -- 83
2019-08-06 23:00:00 26.6 4 Sudeste 17 Este 0 -- -- 80
2019-08-06 22:00:00 26.8 9 Este 20 Sudeste 0 -- -- 79
2019-08-06 21:00:00 27.4 10 Este 18 Este 0 -- -- 79
2019-08-06 20:00:00 29.4 10 Este 15 Este 0 -- -- 68
2019-08-06 19:00:00 31.6 9 Este 22 Este 0 -- -- 61
2019-08-06 18:00:00 32.7 10 Sudeste 26 Sudeste 0 -- -- 54
2019-08-06 17:00:00 33.7 16 Sudeste 27 Sudeste 0 -- -- 51
2019-08-06 16:00:00 33.5 14 Sudeste 28 Sudeste 0 -- -- 52
2019-08-06 15:00:00 33.4 17 Sudeste 27 Sudeste 0 -- -- 54
2019-08-06 14:00:00 33 14 Sudeste 24 Sudeste 0 -- -- 56
2019-08-06 13:00:00 32.7 16 Sudeste 27 Sudeste 0 -- -- 58
2019-08-06 12:00:00 32.1 5 Noroeste 13 Noroeste 0 -- -- 59
2019-08-06 11:00:00 30.3 5 Noroeste 13 Oeste 0 -- -- 64
2019-08-06 10:00:00 28.5 4 Sur 17 Sudoeste 0 -- -- 73
2019-08-06 09:00:00 26.3 6 Oeste 12 Oeste 0 -- -- 83
2019-08-06 08:00:00 24.2 0 Calma 5 Sudoeste 0 -- -- 92
2019-08-06 07:00:00 23.8 4 Oeste 5 Oeste 0 -- -- 91
2019-08-06 06:00:00 24.4 0 Calma 4 Sudeste 0 -- -- 88
2019-08-06 05:00:00 24.9 2 Sudoeste 6 Sudoeste 0 -- -- 89
2019-08-06 04:00:00 24.4 3 Sudeste 6 Sudoeste 0 -- -- 90
2019-08-06 03:00:00 25.1 0 Calma 5 Este 0 -- -- 87
2019-08-06 02:00:00 25.3 3 Este 6 Este 0 -- -- 87
2019-08-06 01:00:00 25.3 0 Calma 4 Sudeste 0 -- -- 84
2019-08-06 00:00:00 25.9 0 Calma 6 Sur 0 -- -- 83
2019-08-05 23:00:00 26.3 4 Sudeste 11 Sudeste 0 -- -- 82
2019-08-05 22:00:00 26.5 5 Sudeste 13 Este 0 -- -- 82
2019-08-05 21:00:00 27.1 8 Este 17 Sudeste 0 -- -- 78
2019-08-05 20:00:00 28.2 10 Este 19 Este 0 -- -- 73
2019-08-05 19:00:00 29.1 13 Este 23 Nordeste 0 -- -- 66
2019-08-05 18:00:00 29.7 13 Este 26 Sudeste 0 -- -- 65
2019-08-05 17:00:00 30.7 12 Este 26 Este 0 -- -- 62
2019-08-05 16:00:00 30.8 13 Este 24 Sudeste 0 -- -- 62
2019-08-05 15:00:00 30.6 13 Sudeste 28 Sudeste 0 -- -- 65
2019-08-05 14:00:00 31.2 13 Este 22 Este 0 -- -- 61
2019-08-05 13:00:00 31.3 9 Nordeste 16 Este 0 -- -- 61
2019-08-05 12:00:00 30 6 Este 13 Este 0 -- -- 66
2019-08-05 11:00:00 28.9 3 Norte 10 Nordeste 0 -- -- 69
2019-08-05 10:00:00 27 5 Norte 9 Norte 0 -- -- 80
2019-08-05 09:00:00 24.6 4 Noroeste 6 Noroeste 0 -- -- 88
2019-08-05 08:00:00 23.5 2 Oeste 5 Oeste 0 -- -- 92
2019-08-05 07:00:00 23.2 0 Calma 2 Noroeste 0 -- -- 92
2019-08-05 06:00:00 23.5 0 Calma 6 Sudeste 0 -- -- 91
2019-08-05 05:00:00 23.7 3 Sudeste 4 Sudeste 0 -- -- 91
2019-08-05 04:00:00 24 2 Norte 5 Norte 0 -- -- 90
2019-08-05 03:00:00 24.3 0 Calma 4 Nordeste 0 -- -- 88
2019-08-05 02:00:00 24.7 0 Calma 5 Nordeste 0 -- -- 86
2019-08-05 01:00:00 25.3 0 Calma 4 Sur 0 -- -- 84
2019-08-05 00:00:00 25.6 0 Calma 8 Sudeste 0 -- -- 83
2019-08-04 23:00:00 26.1 5 Sudeste 14 Este 0 -- -- 83
2019-08-04 22:00:00 26.4 6 Sudeste 14 Este 0 -- -- 80
2019-08-04 21:00:00 27.3 6 Este 15 Sudeste 0 -- -- 75
2019-08-04 20:00:00 28.7 7 Sudeste 18 Sudeste 0 -- -- 67
2019-08-04 19:00:00 29.6 9 Este 19 Sudeste 0 -- -- 62
2019-08-04 18:00:00 30.4 10 Sudeste 24 Sudeste 0 -- -- 60
2019-08-04 17:00:00 31.7 10 Sudeste 21 Este 0 -- -- 55
2019-08-04 16:00:00 31.7 11 Sudeste 20 Este 0 -- -- 54
2019-08-04 15:00:00 31.7 10 Este 21 Este 0 -- -- 51
2019-08-04 14:00:00 30.6 11 Este 19 Este 0 -- -- 59
2019-08-04 13:00:00 30 9 Sudeste 22 Sudeste 0 -- -- 61
2019-08-04 12:00:00 29.7 12 Sudeste 21 Sudeste 0 -- -- 63
2019-08-04 11:00:00 28.7 7 Sudeste 16 Sudeste 0 -- -- 67
2019-08-04 10:00:00 27.3 6 Sur 17 Sur 0 -- -- 71
2019-08-04 09:00:00 25.3 6 Sur 14 Sudoeste 0 -- -- 72
2019-08-04 08:00:00 22.8 3 Sudoeste 7 Sudoeste 0 -- -- 88
2019-08-04 07:00:00 22.2 2 Sudoeste 7 Sur 0 -- -- 89
2019-08-04 06:00:00 22.3 5 Sudoeste 12 Oeste 0 -- -- 89
2019-08-04 05:00:00 22.7 8 Noroeste 12 Noroeste 0 -- -- 88
2019-08-04 04:00:00 22.8 2 Oeste 5 Oeste 0 -- -- 89
2019-08-04 03:00:00 23.3 2 Oeste 5 Oeste 0 -- -- 87
2019-08-04 02:00:00 23.5 4 Sudoeste 5 Sudoeste 0 -- -- 87
2019-08-04 01:00:00 24.2 0 Calma 5 Este 0 -- -- 85
2019-08-04 00:00:00 24.8 3 Este 6 Sudeste 0 -- -- 83
2019-08-03 23:00:00 24.9 4 Este 10 Este 0 -- -- 82
2019-08-03 22:00:00 25.5 5 Este 10 Este 0 -- -- 80
2019-08-03 21:00:00 26.2 5 Nordeste 17 Sudeste 0 -- -- 77
2019-08-03 20:00:00 27.4 10 Sudeste 18 Este 0 -- -- 69
2019-08-03 19:00:00 28.5 8 Este 20 Este 0 -- -- 60
2019-08-03 18:00:00 28.9 11 Este 24 Este 0 -- -- 61
2019-08-03 17:00:00 29.1 14 Sudeste 24 Sudeste 0 -- -- 66
2019-08-03 16:00:00 29.6 13 Este 23 Este 0 -- -- 63
2019-08-03 15:00:00 29.6 14 Nordeste 25 Este 0 -- -- 59
2019-08-03 14:00:00 29.6 15 Este 25 Nordeste 0 -- -- 59
2019-08-03 13:00:00 29.7 15 Este 27 Este 0 -- -- 57
2019-08-03 12:00:00 29.6 10 Este 21 Este 0 -- -- 62
2019-08-03 11:00:00 28.1 12 Nordeste 21 Nordeste 0 -- -- 69
2019-08-03 10:00:00 27 8 Nordeste 15 Este 0 -- -- 72
2019-08-03 09:00:00 24.4 3 Oeste 5 Oeste 0 -- -- 84
2019-08-03 08:00:00 22.5 0 Calma 3 Noroeste 0 -- -- 91
2019-08-03 07:00:00 22.4 0 Calma 5 Sudeste 0 -- -- 89
2019-08-03 06:00:00 22.9 2 Sudoeste 5 Oeste 0 -- -- 88
2019-08-03 05:00:00 23.2 2 Noroeste 5 Noroeste 0 -- -- 87
2019-08-03 04:00:00 23.5 0 Calma 8 Norte 0 -- -- 87
2019-08-03 03:00:00 23.8 4 Norte 8 Norte 0 -- -- 85
2019-08-03 02:00:00 24.2 2 Noroeste 5 Noroeste 0 -- -- 85
2019-08-03 01:00:00 24.8 0 Calma 6 Este 0 -- -- 82
2019-08-03 00:00:00 25.6 5 Este 13 Sudeste 0 -- -- 81
2019-08-02 23:00:00 25.8 6 Este 14 Sudeste 0 -- -- 81
2019-08-02 22:00:00 25.8 8 Este 19 Este 0 -- -- 80
2019-08-02 21:00:00 26.4 11 Sudeste 21 Este 0 -- -- 75
2019-08-02 20:00:00 28.3 9 Este 15 Este 0 -- -- 69
2019-08-02 19:00:00 29.3 10 Este 19 Nordeste 0 -- -- 64
2019-08-02 18:00:00 30.2 6 Este 17 Sudeste 0 -- -- 59
2019-08-02 17:00:00 29.6 10 Sudeste 26 Sur 0 -- -- 61
2019-08-02 16:00:00 30 16 Sudeste 28 Sudeste 0 -- -- 58
2019-08-02 15:00:00 29.5 18 Sudeste 30 Sur 0 -- -- 61
2019-08-02 14:00:00 29.1 18 Sudeste 32 Sudeste 0 -- -- 62
2019-08-02 13:00:00 29.4 15 Sudeste 28 Sudeste 0 -- -- 61
2019-08-02 12:00:00 27.9 12 Sudeste 24 Sudeste 0 -- -- 67
2019-08-02 11:00:00 27.8 12 Sudeste 21 Sudeste 0 -- -- 71
2019-08-02 10:00:00 27.5 8 Este 13 Nordeste 0 -- -- 71
2019-08-02 09:00:00 25.4 3 Norte 5 Norte 0 -- -- 80
2019-08-02 08:00:00 23.3 6 Sudeste 13 Sudeste 0 -- -- 87
2019-08-02 07:00:00 22.6 3 Este 11 Oeste 0 -- -- 87
2019-08-02 06:00:00 22.7 8 Oeste 19 Oeste 0 -- -- 87
2019-08-02 05:00:00 23 4 Sudoeste 8 Oeste 0 -- -- 87
2019-08-02 04:00:00 22.9 0 Calma 6 Sudeste 0 -- -- 87
2019-08-02 03:00:00 23 3 Este 8 Noroeste 0 -- -- 86
2019-08-02 02:00:00 23.4 0 Calma 5 Norte 0 -- -- 83
2019-08-02 01:00:00 24.2 0 Calma 7 Sudoeste 0 -- -- 81
2019-08-02 00:00:00 24.9 3 Sudoeste 8 Sudeste 0 -- -- 78
2019-08-01 23:00:00 25.2 3 Sudeste 13 Sudeste 0 -- -- 76
2019-08-01 22:00:00 25.6 4 Sudeste 13 Este 0 -- -- 74
2019-08-01 21:00:00 26 9 Este 20 Sudeste 0 -- -- 74
2019-08-01 20:00:00 26.8 13 Este 26 Este 0 -- -- 74
2019-08-01 19:00:00 28.1 12 Este 26 Este 0 -- -- 69
2019-08-01 18:00:00 29 13 Este 24 Este 0 -- -- 65
2019-08-01 17:00:00 30.2 9 Sudeste 23 Sudeste 0 -- -- 60
2019-08-01 16:00:00 30.2 9 Sudeste 23 Este 0 -- -- 59
2019-08-01 15:00:00 27 16 Nordeste 28 Este 0 -- -- 69
2019-08-01 14:00:00 29.9 11 Sur 29 Sudeste 0 -- -- 49
2019-08-01 13:00:00 29.1 13 Sudeste 22 Este 0 -- -- 49
2019-08-01 12:00:00 29.8 6 Sudoeste 15 Sudoeste 0 -- -- 45
2019-08-01 11:00:00 28.5 5 Noroeste 9 Noroeste 0 -- -- 50
2019-08-01 10:00:00 26.4 5 Noroeste 16 Oeste 0 -- -- 60
2019-08-01 09:00:00 24.5 8 Oeste 15 Oeste 0 -- -- 66
2019-08-01 08:00:00 22.7 7 Oeste 12 Sudoeste 0 -- -- 72
2019-08-01 07:00:00 21.9 4 Noroeste 15 Sudoeste 0 -- -- 78
2019-08-01 06:00:00 22.2 9 Oeste 17 Oeste 0 -- -- 81
2019-08-01 05:00:00 21.9 5 Oeste 13 Sudoeste 0 -- -- 82
2019-08-01 04:00:00 23.5 6 Oeste 13 Sudoeste 0 -- -- 75
2019-08-01 03:00:00 23.8 3 Norte 12 Nordeste 0 -- -- 73
2019-08-01 02:00:00 23.9 9 Nordeste 18 Nordeste 0 -- -- 77
2019-08-01 01:00:00 24.6 8 Este 14 Este 0 -- -- 75
2019-08-01 00:00:00 25.2 14 Nordeste 45 Nordeste 0 -- -- 73
2019-07-31 23:00:00 25.6 19 Nordeste 37 Este 0 -- -- 75
2019-07-31 22:00:00 26 21 Este 44 Este 0 -- -- 70
2019-07-31 21:00:00 26.4 26 Este 46 Este 0 -- -- 67
2019-07-31 20:00:00 27.1 24 Nordeste 47 Nordeste 0 -- -- 68
2019-07-31 19:00:00 27.4 28 Este 51 Nordeste 0 -- -- 63
2019-07-31 18:00:00 27.6 24 Nordeste 42 Nordeste 0 -- -- 64
2019-07-31 17:00:00 27.6 28 Nordeste 49 Este 0 -- -- 65
2019-07-31 16:00:00 27.8 28 Este 45 Nordeste 0 -- -- 63
2019-07-31 15:00:00 28.5 28 Nordeste 48 Este 0 -- -- 63
2019-07-31 14:00:00 27.7 22 Nordeste 46 Nordeste 0 -- -- 64
2019-07-31 13:00:00 26.8 27 Nordeste 40 Este 0 -- -- 72
2019-07-31 12:00:00 27.3 23 Este 44 Este 0 -- -- 70
2019-07-31 11:00:00 27 26 Este 42 Este 0 -- -- 74
2019-07-31 10:00:00 26.2 23 Nordeste 41 Nordeste 0 -- -- 78
2019-07-31 09:00:00 25.7 21 Nordeste 47 Nordeste 0 -- -- 78
2019-07-31 08:00:00 24.9 13 Sudeste 28 Norte 0 -- -- 72
2019-07-31 07:00:00 23.5 14 Nordeste 23 Nordeste 0 -- -- 75
2019-07-31 06:00:00 23.8 4 Este 12 Oeste 0 -- -- 80
2019-07-31 05:00:00 25 8 Nordeste 21 Nordeste 0 -- -- 76
2019-07-31 04:00:00 25.1 14 Nordeste 24 Nordeste 0 -- -- 78
2019-07-31 03:00:00 25.1 10 Este 20 Nordeste 0 -- -- 78
2019-07-31 02:00:00 25 10 Nordeste 21 Este 0 -- -- 79
2019-07-31 01:00:00 25 12 Nordeste 21 Nordeste 0 -- -- 77
2019-07-31 00:00:00 25.1 9 Este 17 Este 0 -- -- 75
2019-07-30 23:00:00 25.1 9 Nordeste 16 Nordeste 0 -- -- 78
2019-07-30 22:00:00 25.4 7 Nordeste 17 Este 0 -- -- 78
2019-07-30 21:00:00 25.9 10 Nordeste 23 Nordeste 0 -- -- 75
2019-07-30 20:00:00 27.2 13 Nordeste 28 Este 0 -- -- 71
2019-07-30 19:00:00 27.8 17 Este 27 Este 0 -- -- 68
2019-07-30 18:00:00 28.6 15 Este 28 Este 0 -- -- 65
2019-07-30 17:00:00 29.2 16 Este 29 Sudeste 0 -- -- 62
2019-07-30 16:00:00 29.2 16 Este 31 Sudeste 0 -- -- 59
2019-07-30 15:00:00 29.2 19 Este 32 Este 0 -- -- 64
2019-07-30 14:00:00 29.7 13 Este 28 Este 0 -- -- 63
2019-07-30 13:00:00 29.3 15 Este 26 Este 0 -- -- 63
2019-07-30 12:00:00 28.9 15 Este 26 Este 0 -- -- 68
2019-07-30 11:00:00 28.7 11 Este 17 Este 0 -- -- 65
2019-07-30 10:00:00 26.3 3 Norte 8 Noroeste 0 -- -- 72
2019-07-30 09:00:00 24.2 3 Norte 7 Noroeste 0 -- -- 84
2019-07-30 08:00:00 22.4 0 Calma 3 Norte 0 -- -- 91
2019-07-30 07:00:00 21.9 2 Noroeste 5 Sudoeste 0 -- -- 91
2019-07-30 06:00:00 22.2 4 Sudoeste 7 Sudoeste 0 -- -- 91
2019-07-30 05:00:00 22.3 5 Sudoeste 6 Sudoeste 0 -- -- 91
2019-07-30 04:00:00 22.4 3 Sudoeste 6 Oeste 0 -- -- 89
2019-07-30 03:00:00 22.9 3 Oeste 6 Sudeste 0 -- -- 87
2019-07-30 02:00:00 23.7 3 Sudeste 7 Sudeste 0 -- -- 87
2019-07-30 01:00:00 24 3 Este 8 Este 0 -- -- 83
2019-07-30 00:00:00 24.3 5 Este 9 Sudeste 0 -- -- 83
2019-07-29 23:00:00 24.7 5 Este 11 Sudeste 0 -- -- 80
2019-07-29 22:00:00 25.3 5 Sudeste 19 Sudeste 0 -- -- 76
2019-07-29 21:00:00 26.2 11 Sudeste 21 Sudeste 0 -- -- 72
2019-07-29 20:00:00 27.7 12 Sudeste 21 Sudeste 0 -- -- 65
2019-07-29 19:00:00 29 13 Sudeste 24 Sudeste 0 -- -- 56
2019-07-29 18:00:00 29.8 14 Sudeste 28 Sudeste 0 -- -- 51
2019-07-29 17:00:00 29.8 19 Sudeste 32 Sudeste 0 -- -- 48
2019-07-29 16:00:00 30 19 Sudeste 34 Sur 0 -- -- 47
2019-07-29 15:00:00 30.4 17 Sudeste 30 Sudeste 0 -- -- 47
2019-07-29 14:00:00 29.7 19 Sudeste 35 Sudeste 0 -- -- 58
2019-07-29 13:00:00 30.5 14 Sudeste 24 Sudeste 0 -- -- 50
2019-07-29 12:00:00 30.3 10 Sur 18 Este 0 -- -- 50
2019-07-29 11:00:00 28.8 4 Sudeste 11 Norte 0 -- -- 54
2019-07-29 10:00:00 26.3 4 Norte 10 Noroeste 0 -- -- 70
2019-07-29 09:00:00 23.8 5 Noroeste 8 Noroeste 0 -- -- 86
2019-07-29 08:00:00 22.1 4 Oeste 7 Oeste 0 -- -- 88
2019-07-29 07:00:00 21.7 0 Calma 7 Sudeste 0 -- -- 88
2019-07-29 06:00:00 22.1 4 Sudeste 6 Sur 0 -- -- 90
2019-07-29 05:00:00 22 3 Sudoeste 4 Sudoeste 0 -- -- 90
2019-07-29 04:00:00 22.4 0 Calma 3 Nordeste 0 -- -- 89
2019-07-29 03:00:00 22.9 0 Calma 2 Nordeste 0 -- -- 87
2019-07-29 02:00:00 23.6 0 Calma 6 Este 0 -- -- 82
2019-07-29 01:00:00 24.3 3 Este 11 Nordeste 0 -- -- 82
2019-07-29 00:00:00 24.4 6 Este 10 Nordeste 0 -- -- 81
2019-07-28 23:00:00 24.8 4 Este 15 Este 0 -- -- 78
2019-07-28 22:00:00 25.2 9 Este 22 Este 0 -- -- 77
2019-07-28 21:00:00 26.1 12 Este 23 Este 0 -- -- 73
2019-07-28 20:00:00 27.9 10 Sudeste 26 Sudeste 0 -- -- 62
2019-07-28 19:00:00 28.6 13 Sudeste 28 Sudeste 0 -- -- 62
2019-07-28 18:00:00 29 18 Sudeste 32 Sudeste 0 -- -- 63
2019-07-28 17:00:00 29.9 17 Sur 38 Sudeste 0 -- -- 62
2019-07-28 16:00:00 30.1 19 Sudeste 37 Sudeste 0 -- -- 58
2019-07-28 15:00:00 30.5 22 Sudeste 37 Sudeste 0 -- -- 52
2019-07-28 14:00:00 30.8 18 Sudeste 34 Sudeste 0 -- -- 48
2019-07-28 13:00:00 31.4 13 Sudeste 23 Sur 0 -- -- 41
2019-07-28 12:00:00 30.9 5 Este 15 Norte 0 -- -- 48
2019-07-28 11:00:00 30.3 5 Nordeste 9 Este 0 -- -- 36
2019-07-28 10:00:00 28.6 4 Noroeste 11 Norte 0 -- -- 41
2019-07-28 09:00:00 26.9 4 Norte 9 Oeste 0 -- -- 46
2019-07-28 08:00:00 24.8 4 Noroeste 7 Nordeste 0 -- -- 50
2019-07-28 07:00:00 23.7 3 Noroeste 14 Norte 0 -- -- 52
2019-07-28 06:00:00 24 0 Calma 12 Nordeste 0 -- -- 51
2019-07-28 05:00:00 25 6 Nordeste 17 Oeste 0 -- -- 49
2019-07-28 04:00:00 26.2 10 Oeste 16 Oeste 0 -- -- 46
2019-07-28 03:00:00 27.3 13 Oeste 26 Oeste 0 -- -- 43
2019-07-28 02:00:00 27.9 16 Oeste 29 Oeste 0 -- -- 41
2019-07-28 01:00:00 29 21 Oeste 36 Oeste 0 -- -- 38
2019-07-28 00:00:00 29.6 17 Noroeste 31 Oeste 0 -- -- 38
2019-07-27 23:00:00 31 15 Oeste 32 Oeste 0 -- -- 35
2019-07-26 12:00:00 -- -- -- -- -- -- -- -- --
2019-07-26 11:00:00 -- -- -- -- -- -- -- -- --
2019-07-26 10:00:00 -- -- -- -- -- -- -- -- --
2019-07-26 09:00:00 -- -- -- -- -- -- -- -- --
2019-07-26 08:00:00 22.9 0 Calma 2 Este 0 -- -- 93
2019-07-26 07:00:00 22.3 0 Calma 5 Sudoeste 0 -- -- 93
2019-07-26 06:00:00 22.3 2 Oeste 6 Oeste 0 -- -- 91
2019-07-26 05:00:00 23.2 4 Sudoeste 6 Oeste 0 -- -- 92
2019-07-26 04:00:00 23.4 3 Sudoeste 6 Sudoeste 0 -- -- 91
2019-07-26 03:00:00 23.5 2 Oeste 4 Oeste 0 -- -- 90
2019-07-26 02:00:00 24 0 Calma 4 Noroeste 0 -- -- 89
2019-07-26 01:00:00 24.6 0 Calma 4 Noroeste 0 -- -- 86
2019-07-26 00:00:00 25.4 4 Este 8 Nordeste 0 -- -- 85
2019-07-25 23:00:00 25.7 4 Este 10 Este 0 -- -- 85
2019-07-25 22:00:00 26 5 Este 16 Este 0 -- -- 83
2019-07-25 21:00:00 26.9 9 Este 18 Sudeste 0 -- -- 78
2019-07-25 20:00:00 28.7 11 Este 21 Sudeste 0 -- -- 67
2019-07-25 19:00:00 30.2 13 Este 23 Sudeste 0 -- -- 52
2019-07-25 18:00:00 31.4 15 Este 25 Este 0 -- -- 46
2019-07-25 17:00:00 32 17 Este 25 Este 0 -- -- 42
2019-07-25 16:00:00 32.5 14 Este 24 Este 0 -- -- 40
2019-07-25 15:00:00 32.6 15 Este 24 Nordeste 0 -- -- 40
2019-07-25 14:00:00 32 15 Nordeste 27 Este 0 -- -- 42
2019-07-25 13:00:00 31.9 17 Este 26 Este 0 -- -- 44
2019-07-25 12:00:00 31.5 13 Nordeste 23 Sudeste 0 -- -- 46
2019-07-25 11:00:00 31.1 8 Nordeste 19 Este 0 -- -- 44
2019-07-25 10:00:00 27.7 3 Noroeste 11 Oeste 0 -- -- 45
2019-07-25 09:00:00 24.4 7 Oeste 14 Oeste 0 -- -- 61
2019-07-25 08:00:00 21.8 3 Noroeste 12 Oeste 0 -- -- 80
2019-07-25 07:00:00 21.5 3 Oeste 10 Oeste 0 -- -- 82
2019-07-25 06:00:00 21.1 3 Noroeste 6 Oeste 0 -- -- 83
2019-07-25 05:00:00 22.3 6 Oeste 9 Oeste 0 -- -- 81
2019-07-25 04:00:00 23.1 5 Oeste 9 Oeste 0 -- -- 71
2019-07-25 03:00:00 23.2 5 Oeste 8 Oeste 0 -- -- 72
2019-07-25 02:00:00 23.2 0 Calma 7 Oeste 0 -- -- 77
2019-07-25 01:00:00 24.4 2 Oeste 7 Este 0 -- -- 78
2019-07-25 00:00:00 24.9 3 Este 10 Nordeste 0 -- -- 78
2019-07-24 23:00:00 25.8 7 Este 13 Este 0 -- -- 76
2019-07-24 22:00:00 26.2 9 Este 14 Este 0 -- -- 74
2019-07-24 21:00:00 27.4 9 Este 17 Nordeste 0 -- -- 69
2019-07-24 20:00:00 28.8 12 Nordeste 22 Este 0 -- -- 63
2019-07-24 19:00:00 30.2 13 Este 23 Este 0 -- -- 56
2019-07-24 18:00:00 31.1 14 Este 25 Nordeste 0 -- -- 49
2019-07-24 17:00:00 31.6 16 Este 30 Nordeste 0 -- -- 45
2019-07-24 16:00:00 31.8 20 Este 31 Este 0 -- -- 45
2019-07-24 15:00:00 32.6 18 Este 34 Este 0 -- -- 40
2019-07-24 14:00:00 33.2 14 Este 30 Este 0 -- -- 34
2019-07-24 13:00:00 32.9 18 Este 30 Este 0 -- -- 34
2019-07-24 12:00:00 32.7 13 Este 24 Este 0 -- -- 33
2019-07-24 11:00:00 31.9 6 Este 13 Nordeste 0 -- -- 32
2019-07-24 10:00:00 28.8 6 Oeste 10 Oeste 0 -- -- 39
2019-07-24 09:00:00 26 6 Oeste 10 Oeste 0 -- -- 48
2019-07-24 08:00:00 23.8 6 Sudoeste 10 Sudoeste 0 -- -- 53
2019-07-24 07:00:00 21.3 5 Oeste 8 Oeste 0 -- -- 67
2019-07-24 06:00:00 22.5 6 Oeste 13 Sudoeste 0 -- -- 63
2019-07-24 05:00:00 22.9 6 Oeste 10 Oeste 0 -- -- 66
2019-07-24 04:00:00 23.2 3 Oeste 6 Oeste 0 -- -- 69
2019-07-24 03:00:00 24.2 6 Oeste 8 Sudoeste 0 -- -- 67
2019-07-24 02:00:00 25 3 Este 10 Nordeste 0 -- -- 66
2019-07-24 01:00:00 24.6 4 Nordeste 5 Nordeste 0 -- -- 61
2019-07-24 00:00:00 25.4 2 Nordeste 12 Este 0 -- -- 55
2019-07-23 23:00:00 26.1 7 Este 10 Este 0 -- -- 54
2019-07-23 22:00:00 26.7 0 Calma 15 Nordeste 0 -- -- 60
2019-07-23 21:00:00 28.1 11 Este 26 Nordeste 0 -- -- 55
2019-07-23 20:00:00 29.4 18 Este 31 Este 0 -- -- 50
2019-07-23 19:00:00 30.6 21 Nordeste 33 Este 0 -- -- 45
2019-07-23 18:00:00 31.6 17 Nordeste 30 Nordeste 0 -- -- 40
2019-07-23 17:00:00 31.8 21 Este 33 Este 0 -- -- 42
2019-07-23 16:00:00 32.4 20 Este 33 Este 0 -- -- 38
2019-07-23 15:00:00 32.7 21 Nordeste 32 Nordeste 0 -- -- 35
2019-07-23 14:00:00 32.5 22 Este 33 Nordeste 0 -- -- 36
2019-07-23 13:00:00 32.2 18 Este 29 Este 0 -- -- 38
2019-07-23 12:00:00 31.4 17 Este 32 Este 0 -- -- 43
2019-07-23 11:00:00 31.3 12 Este 21 Nordeste 0 -- -- 41
2019-07-23 10:00:00 28.2 5 Noroeste 12 Oeste 0 -- -- 50
2019-07-23 09:00:00 25.1 8 Oeste 13 Oeste 0 -- -- 60
2019-07-23 08:00:00 22.2 10 Sudoeste 14 Sudoeste 0 -- -- 72
2019-07-23 07:00:00 20.9 2 Noroeste 11 Oeste 0 -- -- 79
2019-07-23 06:00:00 21.4 4 Oeste 6 Oeste 0 -- -- 78
2019-07-23 05:00:00 23.2 3 Sudoeste 12 Oeste 0 -- -- 68
2019-07-23 04:00:00 23.9 8 Sudoeste 10 Sudoeste 0 -- -- 66
2019-07-23 03:00:00 23.4 5 Oeste 8 Oeste 0 -- -- 73
2019-07-23 02:00:00 23.5 3 Oeste 6 Oeste 0 -- -- 74
2019-07-23 01:00:00 25.1 4 Oeste 18 Este 0 -- -- 66
2019-07-23 00:00:00 26.1 11 Este 16 Este 0 -- -- 63
2019-07-22 23:00:00 26.2 10 Este 24 Este 0 -- -- 67
2019-07-22 22:00:00 26.8 16 Este 30 Este 0 -- -- 66
2019-07-22 21:00:00 27.5 15 Este 33 Este 0 -- -- 64
2019-07-22 20:00:00 28.4 19 Nordeste 39 Este 0 -- -- 62
2019-07-22 19:00:00 29.6 20 Este 39 Nordeste 0 -- -- 55
2019-07-22 18:00:00 30.2 27 Nordeste 42 Nordeste 0 -- -- 52
2019-07-22 17:00:00 30.2 29 Este 46 Nordeste 0 -- -- 51
2019-07-22 16:00:00 30.8 27 Nordeste 43 Este 0 -- -- 46
2019-07-22 15:00:00 31.1 26 Nordeste 44 Nordeste 0 -- -- 45
2019-07-22 14:00:00 31.2 25 Nordeste 43 Nordeste 0 -- -- 46
2019-07-22 13:00:00 30.1 26 Este 43 Nordeste 0 -- -- 51
2019-07-22 12:00:00 30.3 28 Nordeste 44 Nordeste 0 -- -- 49
2019-07-22 11:00:00 29.5 25 Este 43 Nordeste 0 -- -- 54
2019-07-22 10:00:00 29.4 20 Este 39 Nordeste 0 -- -- 56
2019-07-22 09:00:00 25.9 4 Norte 8 Nordeste 0 -- -- 65
2019-07-22 08:00:00 22.7 3 Oeste 6 Oeste 0 -- -- 75
2019-07-22 07:00:00 22.2 0 Calma 8 Oeste 0 -- -- 72
2019-07-22 06:00:00 23.8 7 Sudoeste 9 Sudoeste 0 -- -- 63
2019-07-22 05:00:00 24 6 Sudoeste 9 Sudoeste 0 -- -- 61
2019-07-22 04:00:00 23.6 2 Nordeste 5 Nordeste 0 -- -- 64
2019-07-22 03:00:00 24 0 Calma 9 Nordeste 0 -- -- 65
2019-07-22 02:00:00 24.5 4 Norte 9 Nordeste 0 -- -- 73
2019-07-22 01:00:00 25.1 4 Nordeste 12 Este 0 -- -- 71
2019-07-22 00:00:00 26.1 9 Nordeste 20 Este 0 -- -- 73
2019-07-21 23:00:00 26.4 13 Nordeste 28 Este 0 -- -- 72
2019-07-21 22:00:00 26.8 18 Este 36 Este 0 -- -- 70
2019-07-21 21:00:00 27.4 18 Este 40 Este 0 -- -- 70
2019-07-21 20:00:00 28.3 24 Este 42 Este 0 -- -- 66
2019-07-21 19:00:00 29.3 22 Nordeste 43 Este 0 -- -- 61
2019-07-21 18:00:00 29.9 26 Este 42 Este 0 -- -- 60
2019-07-21 17:00:00 31.1 23 Este 41 Nordeste 0 -- -- 54
2019-07-21 16:00:00 31.4 26 Nordeste 50 Nordeste 0 -- -- 51
2019-07-21 15:00:00 31.8 22 Nordeste 49 Este 0 -- -- 52
2019-07-21 14:00:00 32.1 27 Nordeste 46 Nordeste 0 -- -- 47
2019-07-21 13:00:00 31.4 25 Nordeste 49 Este 0 -- -- 48
2019-07-21 12:00:00 30.6 28 Nordeste 43 Este 0 -- -- 52
2019-07-21 11:00:00 29.8 27 Nordeste 47 Nordeste 0 -- -- 55
2019-07-21 10:00:00 28.6 25 Nordeste 37 Nordeste 0 -- -- 63
2019-07-21 09:00:00 26.6 0 Calma 4 Sur 0 -- -- 56
2019-07-21 08:00:00 23.9 3 Oeste 14 Oeste 0 -- -- 65
2019-07-21 07:00:00 23 8 Oeste 14 Oeste 0 -- -- 67
2019-07-21 06:00:00 22.1 2 Oeste 9 Nordeste 0 -- -- 70
2019-07-21 05:00:00 23.3 3 Oeste 8 Oeste 0 -- -- 68
2019-07-21 04:00:00 25.2 6 Oeste 12 Oeste 0 -- -- 58
2019-07-21 03:00:00 25.1 6 Oeste 9 Sudoeste 0 -- -- 58
2019-07-21 02:00:00 25.2 4 Oeste 16 Nordeste 0 -- -- 62
2019-07-21 01:00:00 26.3 9 Nordeste 18 Nordeste 0 -- -- 62
2019-07-21 00:00:00 26.7 10 Nordeste 23 Nordeste 0 -- -- 63